createdAt,value
2022-12-11T00:05:14.365Z,12.38
2022-12-11T00:12:16.302Z,10.80
2022-12-11T00:19:18.300Z,12.05
2022-12-11T00:26:20.313Z,11.88
2022-12-11T00:33:22.451Z,12.07
2022-12-11T00:40:24.425Z,11.32
2022-12-11T00:47:26.398Z,10.25
2022-12-11T00:54:28.557Z,10.40
2022-12-11T01:01:30.653Z,10.52
2022-12-11T01:08:38.116Z,10.98
2022-12-11T01:15:43.195Z,10.40
2022-12-11T01:22:45.397Z,10.13
2022-12-11T01:29:47.522Z,10.75
2022-12-11T01:36:49.490Z,10.00
2022-12-11T01:44:07.718Z,9.93
2022-12-11T01:51:09.937Z,9.50
2022-12-11T01:58:12.671Z,11.00
2022-12-11T02:05:15.032Z,9.80
2022-12-11T02:12:17.200Z,10.45
2022-12-11T02:19:25.325Z,9.60
2022-12-11T02:26:45.960Z,10.30
2022-12-11T02:33:54.248Z,8.82
2022-12-11T02:40:57.139Z,8.63
2022-12-11T02:48:00.397Z,8.77
2022-12-11T02:55:03.990Z,8.38
2022-12-11T03:02:06.604Z,8.60
2022-12-11T03:09:09.008Z,8.60
2022-12-11T03:16:38.430Z,7.20
2022-12-11T03:23:53.695Z,8.68
2022-12-11T03:30:57.075Z,8.45
2022-12-11T03:38:03.814Z,9.20
2022-12-11T03:45:07.066Z,6.53
2022-12-11T03:52:10.329Z,8.52
2022-12-11T03:59:12.830Z,7.00
2022-12-11T04:06:14.992Z,8.50
2022-12-11T04:13:17.245Z,6.68
2022-12-11T04:20:38.239Z,8.90
2022-12-11T04:27:52.338Z,10.15
2022-12-11T04:34:54.299Z,9.82
2022-12-11T04:41:56.243Z,9.50
2022-12-11T04:48:58.392Z,7.78
2022-12-11T04:56:00.604Z,8.82
2022-12-11T05:03:02.730Z,8.15
2022-12-11T05:10:05.782Z,9.70
2022-12-11T05:17:07.743Z,8.82
2022-12-11T05:24:09.763Z,9.13
2022-12-11T05:31:17.608Z,8.43
2022-12-11T05:38:19.969Z,10.45
2022-12-11T05:45:22.096Z,9.63
2022-12-11T05:52:24.130Z,8.50
2022-12-11T05:59:26.515Z,10.68
2022-12-11T06:06:28.777Z,10.20
2022-12-11T06:13:30.961Z,8.85
2022-12-11T06:20:34.409Z,9.52
2022-12-11T06:27:36.440Z,10.80
2022-12-11T06:34:38.599Z,10.07
2022-12-11T06:41:40.622Z,8.90
2022-12-11T06:48:43.336Z,11.15
2022-12-11T06:55:45.587Z,8.80
2022-12-11T07:02:47.719Z,9.90
2022-12-11T07:09:49.926Z,10.57
2022-12-11T07:16:52.239Z,7.43
2022-12-11T07:23:54.344Z,10.00
2022-12-11T07:30:56.349Z,10.07
2022-12-11T07:37:59.925Z,7.65
2022-12-11T07:45:01.951Z,7.53
2022-12-11T07:52:04.167Z,9.35
2022-12-11T07:59:06.817Z,8.68
2022-12-11T08:06:09.568Z,8.93
2022-12-11T08:13:12.080Z,8.68
2022-12-11T08:20:14.119Z,9.70
2022-12-11T08:27:16.276Z,9.25
2022-12-11T08:34:19.059Z,9.38
2022-12-11T08:41:26.621Z,6.93
2022-12-11T08:48:28.766Z,8.35
2022-12-11T08:55:30.736Z,7.53
2022-12-11T09:02:32.737Z,6.80
2022-12-11T09:09:35.058Z,7.72
2022-12-11T09:16:41.310Z,7.85
2022-12-11T09:23:44.037Z,7.35
2022-12-11T09:30:46.209Z,7.43
2022-12-11T09:37:48.484Z,7.22
2022-12-11T09:44:54.097Z,8.32
2022-12-11T09:52:02.147Z,7.50
2022-12-11T09:59:23.794Z,7.20
2022-12-11T10:06:47.604Z,8.65
2022-12-11T10:14:08.320Z,6.03
2022-12-11T10:21:10.976Z,7.07
2022-12-11T10:28:18.174Z,7.18
2022-12-11T10:35:28.556Z,7.20
2022-12-11T10:42:31.215Z,6.75
2022-12-11T10:49:35.804Z,7.93
2022-12-11T10:56:39.765Z,7.90
2022-12-11T11:04:07.279Z,6.20
2022-12-11T11:11:20.146Z,6.30
2022-12-11T11:18:27.573Z,8.75
2022-12-11T11:25:31.632Z,7.10
2022-12-11T11:32:39.491Z,5.43
2022-12-11T11:39:45.751Z,6.30
2022-12-11T11:47:00.114Z,6.72
2022-12-11T11:54:27.510Z,5.60
2022-12-11T12:01:30.716Z,6.95
2022-12-11T12:08:39.131Z,5.85
2022-12-11T12:15:50.783Z,6.13
2022-12-11T12:22:58.882Z,5.30
2022-12-11T12:30:15.008Z,4.97
2022-12-11T12:37:28.704Z,4.40
2022-12-11T12:44:36.853Z,6.38
2022-12-11T12:51:48.270Z,7.10
2022-12-11T12:58:52.950Z,5.35
2022-12-11T13:06:16.783Z,4.95
2022-12-11T13:14:09.480Z,5.55
2022-12-11T13:21:45.162Z,5.78
2022-12-11T13:28:52.175Z,6.13
2022-12-11T13:36:24.581Z,6.78
2022-12-11T13:43:30.823Z,5.05
2022-12-11T13:50:39.019Z,4.60
2022-12-11T13:57:48.608Z,5.53
2022-12-11T14:04:53.432Z,5.55
2022-12-11T14:11:57.596Z,8.55
2022-12-11T14:19:06.513Z,6.82
2022-12-11T14:26:23.279Z,5.95
2022-12-11T14:33:48.457Z,6.40
2022-12-11T14:40:59.810Z,5.05
2022-12-11T14:48:21.013Z,5.90
2022-12-11T14:55:50.782Z,3.60
2022-12-11T15:03:15.922Z,5.70
2022-12-11T15:10:29.163Z,4.65
2022-12-11T15:17:37.691Z,5.72
2022-12-11T15:24:44.176Z,5.55
2022-12-11T15:31:48.389Z,4.80
2022-12-11T15:38:50.527Z,6.13
2022-12-11T15:45:53.009Z,6.00
2022-12-11T15:52:56.550Z,6.40
2022-12-11T15:59:59.410Z,6.28
2022-12-11T16:07:03.924Z,7.22
2022-12-11T16:14:06.573Z,6.20
2022-12-11T16:21:08.855Z,6.55
2022-12-11T16:28:13.327Z,7.68
2022-12-11T16:35:26.694Z,7.57
2022-12-11T16:42:29.294Z,5.82
2022-12-11T16:49:33.520Z,6.90
2022-12-11T16:56:37.227Z,5.47
2022-12-11T17:03:40.627Z,5.47
2022-12-11T17:10:43.084Z,4.57
2022-12-11T17:17:46.161Z,7.43
2022-12-11T17:24:49.395Z,7.78
2022-12-11T17:31:53.214Z,5.47
2022-12-11T17:38:55.973Z,6.18
2022-12-11T17:45:58.295Z,4.35
2022-12-11T17:53:01.064Z,6.10
2022-12-11T18:00:03.805Z,5.28
2022-12-11T18:07:06.643Z,6.22
2022-12-11T18:14:15.255Z,6.68
2022-12-11T18:21:22.483Z,5.15
2022-12-11T18:28:25.700Z,5.65
2022-12-11T18:35:30.723Z,3.88
2022-12-11T18:42:34.670Z,6.03
2022-12-11T18:49:37.962Z,5.75
2022-12-11T18:56:42.847Z,5.35
2022-12-11T19:04:01.983Z,5.57
2022-12-11T19:11:07.004Z,8.50
2022-12-11T19:18:14.016Z,8.00
2022-12-11T19:25:17.040Z,7.13
2022-12-11T19:32:19.477Z,6.32
2022-12-11T19:39:24.111Z,5.32
2022-12-11T19:46:28.013Z,8.15
2022-12-11T19:53:31.622Z,5.68
2022-12-11T20:00:38.701Z,7.15
2022-12-11T20:07:43.425Z,5.10
2022-12-11T20:14:49.065Z,5.35
2022-12-11T20:21:54.170Z,4.93
2022-12-11T20:28:56.844Z,6.60
2022-12-11T20:35:59.694Z,8.13
2022-12-11T20:43:02.520Z,5.47
2022-12-11T20:50:05.941Z,6.45
2022-12-11T20:57:09.142Z,5.72
2022-12-11T21:04:11.837Z,5.32
2022-12-11T21:11:16.263Z,5.72
2022-12-11T21:18:25.096Z,6.18
2022-12-11T21:25:27.629Z,6.10
2022-12-11T21:32:30.498Z,6.88
2022-12-11T21:39:39.325Z,5.63
2022-12-11T21:46:44.234Z,5.80
2022-12-11T21:53:46.485Z,7.50
2022-12-11T22:00:48.722Z,6.75
2022-12-11T22:07:50.994Z,7.45
2022-12-11T22:14:53.223Z,6.35
2022-12-11T22:21:55.480Z,5.50
2022-12-11T22:28:58.464Z,5.93
2022-12-11T22:36:00.828Z,5.55
2022-12-11T22:43:03.019Z,5.95
2022-12-11T22:50:06.579Z,5.10
2022-12-11T22:57:09.325Z,5.53
2022-12-11T23:04:11.371Z,5.25
2022-12-11T23:11:22.615Z,5.47
2022-12-11T23:18:24.567Z,4.80
2022-12-11T23:25:28.262Z,5.15
2022-12-11T23:32:30.252Z,5.55
2022-12-11T23:39:32.286Z,6.20
2022-12-11T23:46:34.728Z,5.63
2022-12-11T23:53:36.712Z,5.20
